Minneapolis, Minnesota
Current Conditions -  °F | °C
As of 10:53 AM on Friday 24 Oct 2014 (Local Time) from KMSP Reporting Station
Broken Clouds Broken Clouds  
Wind Chill: 57°   Ceiling: 25000
Heat Index: 57°   Visibility: 10mi
Dew Point: 50°   Wind: 8mph
Humidity: 77%   Direction: 140°SE
Pressure: 29.88"   Gusts: NA
Location:  44.98°N, 93.26°W
Report Text: KMSP 241553Z 14007KT 10SM FEW047 BKN250 14/10 A2988 RMK AO2 SLP119 T01390100
Loading
Personal Weather Stations






























Interactive Weather Map
Tropical Storm Tracking
New forecast layout! Learn more

10-Day Weather Forecast

Advertisements
Track Severe Weather on mobile